Time;durP1;ratioP1;P1;durP2;ratioP2;P2;SDS_P1;SDS_P2;PMS_P1;PMS_P2;Temp;Humidity;BMP_temperature;BMP_pressure;BME280_temperature;BME280_humidity;BME280_pressure;Samples;Min_cycle;Max_cycle;Signal;HPM_P1;HPM_P2
2022/12/27 00:01:20;;;;;;;22.13;14.38;;;15.10;99.90;;;;;;5113513;28;20029;-52
2022/12/27 00:03:46;;;;;;;16.55;11.18;;;14.60;99.90;;;;;;5090254;28;20028;-51
2022/12/27 00:06:15;;;;;;;29.25;19.77;;;14.90;99.90;;;;;;5114037;28;20532;-52
2022/12/27 00:08:42;;;;;;;25.33;19.60;;;14.90;99.90;;;;;;5113947;28;20455;-52
2022/12/27 00:11:10;;;;;;;25.98;18.10;;;14.70;99.90;;;;;;5113982;28;20027;-52
2022/12/27 00:13:36;;;;;;;19.88;13.80;;;15.40;99.90;;;;;;5114138;28;20037;-52
2022/12/27 00:16:11;;;;;;;23.73;13.65;;;15.00;99.90;;;;;;5095085;28;20028;-52
2022/12/27 00:18:38;;;;;;;25.42;15.30;;;14.50;99.90;;;;;;5113821;28;20027;-52
2022/12/27 00:21:05;;;;;;;33.92;18.13;;;14.90;99.90;;;;;;5113518;28;20028;-51
2022/12/27 00:23:35;;;;;;;24.15;13.38;;;14.80;99.90;;;;;;5114066;28;20069;-52
2022/12/27 00:26:03;;;;;;;14.25;9.25;;;14.90;99.90;;;;;;5113936;28;20023;-52
2022/12/27 00:28:33;;;;;;;9.23;6.22;;;14.90;99.90;;;;;;5077685;28;20039;-52
2022/12/27 00:31:00;;;;;;;6.93;5.13;;;;;;;;;;5113795;28;20486;-52
2022/12/27 00:33:28;;;;;;;5.97;4.07;;;14.90;99.90;;;;;;5113606;28;20131;-52
2022/12/27 00:35:54;;;;;;;6.13;4.30;;;14.80;99.90;;;;;;5094782;28;20213;-52
2022/12/27 00:38:20;;;;;;;6.05;3.67;;;14.80;99.90;;;;;;5113852;28;20032;-52
2022/12/27 00:40:46;;;;;;;4.88;3.35;;;14.80;99.90;;;;;;5113772;28;20028;-52
2022/12/27 00:43:12;;;;;;;5.88;4.03;;;14.80;99.90;;;;;;5113474;28;20091;-52
2022/12/27 00:45:38;;;;;;;5.55;3.70;;;15.00;99.90;;;;;;5094623;28;20127;-52
2022/12/27 00:48:04;;;;;;;5.68;3.45;;;;;;;;;;5113794;28;20390;-52
2022/12/27 00:50:30;;;;;;;7.65;4.38;;;15.10;99.90;;;;;;5094830;28;20050;-52
2022/12/27 00:52:56;;;;;;;4.57;3.08;;;14.90;99.90;;;;;;5094655;28;20039;-52
2022/12/27 00:55:21;;;;;;;5.80;3.72;;;14.80;99.90;;;;;;5113433;28;20054;-52
2022/12/27 00:57:47;;;;;;;4.57;2.53;;;;;;;;;;5113246;28;20067;-51
2022/12/27 01:00:14;;;;;;;3.03;2.33;;;14.50;99.90;;;;;;5113131;28;20106;-52
2022/12/27 01:02:39;;;;;;;5.13;2.97;;;14.80;99.90;;;;;;5094347;28;20032;-52
2022/12/27 01:05:06;;;;;;;6.80;2.78;;;14.70;99.90;;;;;;5113363;28;20497;-52
2022/12/27 01:07:32;;;;;;;5.25;2.90;;;14.70;99.90;;;;;;5113773;28;20023;-53
2022/12/27 01:09:57;;;;;;;4.75;2.20;;;14.80;99.90;;;;;;5113569;28;20476;-52
2022/12/27 01:12:23;;;;;;;2.95;2.15;;;14.80;99.90;;;;;;5113393;28;20106;-52
2022/12/27 01:14:49;;;;;;;3.65;2.40;;;14.80;99.90;;;;;;5113276;28;20398;-52
2022/12/27 01:17:15;;;;;;;2.75;2.13;;;14.80;99.90;;;;;;5113740;28;20036;-52
2022/12/27 01:19:41;;;;;;;4.72;2.47;;;14.80;99.90;;;;;;5094393;28;20032;-52
2022/12/27 01:22:06;;;;;;;4.88;2.80;;;14.80;99.90;;;;;;5113242;28;20028;-52
2022/12/27 01:24:33;;;;;;;5.63;2.53;;;14.80;99.90;;;;;;5113213;28;20031;-52
2022/12/27 01:26:59;;;;;;;3.80;2.65;;;14.90;99.90;;;;;;5094427;28;20122;-52
2022/12/27 01:29:26;;;;;;;2.47;1.77;;;14.90;99.90;;;;;;5113203;28;20455;-52
2022/12/27 01:31:51;;;;;;;4.30;2.50;;;15.00;99.90;;;;;;5112722;28;20059;-51
2022/12/27 01:34:17;;;;;;;2.60;1.85;;;15.10;99.90;;;;;;5113117;28;20404;-52
2022/12/27 01:36:44;;;;;;;4.05;1.90;;;15.10;99.90;;;;;;5113174;28;20041;-52
2022/12/27 01:39:11;;;;;;;2.60;1.65;;;15.10;99.90;;;;;;5094476;28;20042;-52
2022/12/27 01:44:36;;;;;;;2.67;1.73;;;15.20;99.90;;;;;;5074408;28;20106;-51
2022/12/27 01:47:22;;;;;;;3.95;1.90;;;15.20;99.90;;;;;;5073931;28;20024;-52
2022/12/27 01:50:08;;;;;;;3.40;1.83;;;15.20;99.90;;;;;;5073913;28;20422;-52
2022/12/27 01:52:45;;;;;;;3.60;2.00;;;15.30;99.90;;;;;;5059086;28;20436;-51
2022/12/27 01:55:19;;;;;;;3.30;1.80;;;15.30;99.90;;;;;;5073746;28;20113;-52
2022/12/27 01:57:46;;;;;;;4.95;2.10;;;15.30;99.90;;;;;;5073574;28;20036;-52
2022/12/27 02:00:13;;;;;;;5.30;2.20;;;15.30;99.90;;;;;;5073403;28;20028;-51
2022/12/27 02:02:39;;;;;;;3.17;2.13;;;15.30;99.90;;;;;;5053665;28;20037;-52
2022/12/27 02:05:06;;;;;;;2.40;1.77;;;15.30;99.90;;;;;;5053474;28;20033;-51
2022/12/27 02:07:59;;;;;;;4.38;2.75;;;15.30;99.90;;;;;;5036929;28;20439;-52
2022/12/27 02:10:27;;;;;;;3.95;2.58;;;15.30;99.90;;;;;;5053342;28;20495;-52
2022/12/27 02:12:53;;;;;;;3.95;1.98;;;15.30;99.90;;;;;;5053220;28;20474;-52
2022/12/27 02:15:19;;;;;;;3.63;2.20;;;15.40;99.90;;;;;;5077043;28;20084;-52
2022/12/27 02:17:45;;;;;;;4.20;2.60;;;15.30;99.90;;;;;;5093648;28;20478;-52
2022/12/27 02:20:16;;;;;;;3.75;2.33;;;15.30;99.90;;;;;;5093364;28;20483;-52
2022/12/27 02:26:23;;;;;;;3.95;2.20;;;15.30;99.90;;;;;;5093441;28;20078;-52
2022/12/27 02:29:12;;;;;;;3.33;2.40;;;15.30;99.90;;;;;;5093374;28;20085;-52
2022/12/27 02:31:46;;;;;;;3.42;2.17;;;15.30;99.90;;;;;;5092894;28;20170;-52
2022/12/27 02:34:23;;;;;;;3.30;2.25;;;15.40;99.90;;;;;;5093169;28;20113;-52
2022/12/27 02:36:52;;;;;;;4.30;1.77;;;15.40;99.90;;;;;;5093132;28;20129;-52
2022/12/27 02:39:19;;;;;;;4.68;2.85;;;15.50;99.90;;;;;;5097261;28;20042;-52
2022/12/27 02:53:27;;;;;;;4.28;2.53;;;15.50;99.90;;;;;;5115333;28;20402;-51
2022/12/27 02:59:14;;;;;;;4.22;2.38;;;15.50;99.90;;;;;;5115377;28;20035;-51
2022/12/27 03:05:16;;;;;;;6.55;3.15;;;15.40;99.90;;;;;;5114983;28;20039;-52
2022/12/27 03:08:00;;;;;;;6.70;3.00;;;15.50;99.90;;;;;;5115229;28;20031;-52
2022/12/27 03:16:31;;;;;;;4.57;2.60;;;15.50;99.90;;;;;;5115016;28;20039;-52
2022/12/27 03:25:26;;;;;;;;;;;15.40;99.90;;;;;;5115831;28;20028;-52
2022/12/27 03:27:35;;;;;;;15.10;4.53;;;14.70;99.90;;;;;;5084905;28;20440;-51
2022/12/27 03:33:12;;;;;;;5.43;2.95;;;14.60;99.90;;;;;;5071556;28;20423;-52
2022/12/27 03:39:07;;;;;;;7.78;4.00;;;14.20;99.90;;;;;;5011959;28;20433;-52
2022/12/27 03:44:24;;;;;;;6.45;3.85;;;13.90;99.90;;;;;;5012327;28;20084;-51
2022/12/27 03:46:58;;;;;;;8.57;4.30;;;13.70;99.90;;;;;;5011788;28;20038;-53
2022/12/27 03:49:29;;;;;;;7.03;4.80;;;13.60;99.90;;;;;;5011866;28;20038;-52
2022/12/27 03:52:13;;;;;;;9.90;5.38;;;13.30;99.90;;;;;;5011614;28;20448;-52
2022/12/27 03:54:41;;;;;;;9.77;4.38;;;13.30;99.90;;;;;;5011846;28;20073;-52
2022/12/27 03:57:33;;;;;;;8.43;5.03;;;13.00;99.90;;;;;;5011629;28;20042;-51
2022/12/27 03:59:59;;;;;;;10.27;4.63;;;13.10;99.90;;;;;;5008794;28;20057;-51
2022/12/27 04:02:24;;;;;;;10.38;5.60;;;13.00;99.90;;;;;;5013298;28;20490;-52
2022/12/27 04:04:50;;;;;;;9.20;5.10;;;12.90;99.90;;;;;;5051051;28;20047;-51
2022/12/27 04:07:16;;;;;;;9.57;6.47;;;12.90;99.90;;;;;;5051369;28;20044;-52
2022/12/27 04:37:05;;;;;;;14.43;8.82;;;13.60;99.90;;;;;;5113923;28;20037;-51
2022/12/27 04:39:31;;;;;;;9.02;8.02;;;13.80;99.90;;;;;;5113773;28;20498;-51
2022/12/27 04:56:05;;;;;;;13.43;9.05;;;14.10;99.90;;;;;;5070810;28;20094;-53
2022/12/27 04:58:31;;;;;;;12.30;8.52;;;14.00;99.90;;;;;;5070856;28;20024;-52
2022/12/27 05:03:49;;;;;;;13.02;8.65;;;14.00;99.90;;;;;;5064724;28;20541;-53
2022/12/27 05:06:16;;;;;;;13.98;9.73;;;14.00;99.90;;;;;;5037013;28;20044;-53
2022/12/27 05:14:13;;;;;;;14.85;8.68;;;14.00;99.90;;;;;;5070967;28;20472;-53
2022/12/27 05:16:41;;;;;;;19.88;9.40;;;14.00;99.90;;;;;;5074415;28;20028;-54
2022/12/27 05:19:09;;;;;;;20.00;9.85;;;14.00;99.90;;;;;;5074157;28;20111;-50
2022/12/27 05:25:33;;;;;;;18.70;9.38;;;14.10;99.90;;;;;;5101277;28;20126;-50
2022/12/27 05:27:14;;;;;;;14.70;8.93;;;13.90;99.90;;;;;;5081969;28;20038;-54
2022/12/27 05:29:40;;;;;;;15.85;9.75;;;13.90;99.90;;;;;;5116770;28;20073;-51
2022/12/27 05:32:05;;;;;;;14.48;9.00;;;13.80;99.90;;;;;;5116030;28;20047;-50
2022/12/27 05:34:31;;;;;;;9.55;7.82;;;13.80;99.90;;;;;;5116790;28;20038;-51
2022/12/27 05:36:57;;;;;;;18.58;9.07;;;13.90;99.90;;;;;;5104110;28;20030;-51
2022/12/27 05:39:22;;;;;;;17.40;9.05;;;13.90;99.90;;;;;;5106295;28;20512;-51
2022/12/27 05:41:48;;;;;;;11.38;8.30;;;13.90;99.90;;;;;;5116253;28;20027;-51
2022/12/27 05:44:14;;;;;;;11.82;8.35;;;14.00;99.90;;;;;;5115893;28;20054;-51
2022/12/27 05:46:40;;;;;;;11.57;8.45;;;14.00;99.90;;;;;;5114176;28;20106;-51
2022/12/27 05:49:05;;;;;;;15.10;8.98;;;14.00;99.90;;;;;;5108594;28;20032;-51
2022/12/27 05:51:31;;;;;;;11.27;8.52;;;14.00;99.90;;;;;;5105104;28;20036;-54
2022/12/27 05:53:57;;;;;;;13.68;10.38;;;14.00;99.90;;;;;;5116478;28;20032;-51
2022/12/27 05:56:23;;;;;;;11.98;9.40;;;14.00;99.90;;;;;;5064043;28;20039;-50
2022/12/27 05:58:52;;;;;;;15.73;9.75;;;14.00;99.90;;;;;;5081691;28;20403;-51
2022/12/27 06:01:18;;;;;;;15.07;10.38;;;14.00;99.90;;;;;;5107339;28;20031;-51
2022/12/27 06:03:45;;;;;;;13.60;9.50;;;14.00;99.90;;;;;;5116769;28;20494;-51
2022/12/27 06:06:11;;;;;;;11.02;8.43;;;13.90;99.90;;;;;;5116130;28;20031;-51
2022/12/27 06:08:38;;;;;;;11.40;8.70;;;13.90;99.90;;;;;;5097347;28;20031;-51
2022/12/27 06:11:10;;;;;;;12.32;8.32;;;13.80;99.90;;;;;;5116641;28;20023;-51
2022/12/27 06:13:36;;;;;;;10.50;7.78;;;;;;;;;;5116100;28;20482;-50
2022/12/27 06:16:04;;;;;;;12.38;8.73;;;13.90;99.90;;;;;;5115621;28;20027;-51
2022/12/27 06:18:31;;;;;;;11.02;8.07;;;13.40;99.90;;;;;;5116442;27;20027;-51
2022/12/27 06:21:07;;;;;;;15.10;8.93;;;13.40;99.90;;;;;;5114289;28;20028;-51
2022/12/27 06:23:34;;;;;;;15.75;9.20;;;13.50;99.90;;;;;;5066672;28;20664;-53
2022/12/27 06:26:08;;;;;;;11.50;9.13;;;13.50;99.90;;;;;;5112972;28;20020;-51
2022/12/27 06:28:34;;;;;;;10.38;8.93;;;13.30;99.90;;;;;;5079794;28;20074;-50
2022/12/27 06:31:00;;;;;;;12.70;8.82;;;;;;;;;;5095528;28;20044;-51
2022/12/27 06:33:27;;;;;;;10.70;8.70;;;;;;;;;;5096255;28;20562;-51
2022/12/27 06:35:53;;;;;;;12.02;8.27;;;;;;;;;;5115892;28;20368;-50
2022/12/27 06:38:19;;;;;;;11.25;8.93;;;;;;;;;;5115428;28;20043;-45
2022/12/27 06:40:45;;;;;;;15.00;8.38;;;;;;;;;;5116016;28;20028;-50
2022/12/27 06:43:11;;;;;;;9.93;7.07;;;13.20;99.90;;;;;;5115906;28;20055;-50
2022/12/27 06:45:37;;;;;;;9.40;8.40;;;12.80;99.90;;;;;;5113832;28;20479;-51
2022/12/27 06:48:03;;;;;;;12.30;8.38;;;12.90;99.90;;;;;;5115597;28;20032;-51
2022/12/27 06:50:29;;;;;;;14.50;8.07;;;13.10;99.90;;;;;;5096511;28;20039;-51
2022/12/27 06:52:55;;;;;;;11.52;7.30;;;13.00;99.90;;;;;;5111030;28;20048;-50
2022/12/27 06:55:21;;;;;;;14.18;8.10;;;12.80;99.90;;;;;;5115437;28;20475;-51
2022/12/27 06:57:47;;;;;;;9.75;7.85;;;13.00;99.90;;;;;;5096577;28;20118;-50
2022/12/27 07:00:13;;;;;;;12.63;8.95;;;12.90;99.90;;;;;;5093070;28;20111;-53
2022/12/27 07:02:39;;;;;;;10.10;7.47;;;12.90;99.90;;;;;;5083156;28;20035;-53
2022/12/27 07:05:05;;;;;;;11.23;6.88;;;12.80;99.90;;;;;;5094868;28;20049;-53
2022/12/27 07:07:31;;;;;;;11.63;8.68;;;12.70;99.90;;;;;;5075909;28;20040;-52
2022/12/27 07:09:57;;;;;;;34.75;24.23;;;12.90;99.90;;;;;;5099231;28;20462;-53
2022/12/27 07:12:23;;;;;;;30.90;23.10;;;13.00;99.90;;;;;;5102712;28;20032;-50
2022/12/27 07:14:48;;;;;;;34.47;23.13;;;13.00;99.90;;;;;;5092890;28;20055;-50
2022/12/27 07:17:14;;;;;;;27.42;19.90;;;13.00;99.90;;;;;;5094996;28;20043;-50
2022/12/27 07:19:40;;;;;;;21.40;16.02;;;13.10;99.90;;;;;;5102102;28;20024;-50
2022/12/27 07:22:06;;;;;;;24.98;18.35;;;13.30;99.90;;;;;;5093732;28;20042;-51
2022/12/27 07:24:32;;;;;;;27.80;18.50;;;13.40;99.90;;;;;;5111336;28;20024;-51
2022/12/27 07:26:58;;;;;;;32.00;22.33;;;13.50;99.90;;;;;;5093350;28;20038;-50
2022/12/27 07:29:25;;;;;;;44.78;30.05;;;13.60;99.90;;;;;;5114551;28;20437;-53
2022/12/27 07:31:50;;;;;;;37.65;25.40;;;13.60;99.90;;;;;;5113765;27;20053;-54
2022/12/27 07:34:16;;;;;;;31.73;22.15;;;13.60;99.90;;;;;;5114174;28;20024;-53
2022/12/27 07:36:42;;;;;;;31.05;21.85;;;13.50;99.90;;;;;;5113689;28;20016;-53
2022/12/27 07:39:08;;;;;;;37.30;23.63;;;13.50;99.90;;;;;;5113329;28;20031;-53
2022/12/27 07:41:34;;;;;;;69.85;38.45;;;13.60;99.90;;;;;;5111947;28;20066;-53
2022/12/27 07:44:01;;;;;;;27.70;19.95;;;13.60;99.90;;;;;;5109319;28;20358;-53
2022/12/27 07:46:27;;;;;;;28.80;21.30;;;;;;;;;;5112154;28;20504;-53
2022/12/27 07:48:57;;;;;;;22.77;16.70;;;13.50;99.90;;;;;;5109250;28;20030;-53
2022/12/27 07:51:24;;;;;;;18.67;10.77;;;13.50;99.90;;;;;;5114550;28;20475;-53
2022/12/27 07:53:50;;;;;;;17.35;9.65;;;13.20;99.90;;;;;;5113225;28;20516;-54
2022/12/27 07:56:19;;;;;;;15.18;10.00;;;13.00;99.90;;;;;;5114105;28;20016;-53
2022/12/27 07:58:46;;;;;;;15.10;11.13;;;13.00;99.90;;;;;;5114612;28;20026;-53
2022/12/27 08:01:14;;;;;;;15.13;9.77;;;13.10;99.90;;;;;;5114369;28;20424;-52
2022/12/27 08:03:40;;;;;;;11.70;10.15;;;13.20;99.90;;;;;;5114098;28;20466;-53
2022/12/27 08:06:08;;;;;;;57.10;43.13;;;13.20;99.90;;;;;;5095203;28;20450;-52
2022/12/27 08:08:43;;;;;;;12.00;10.73;;;13.30;99.90;;;;;;5114109;28;20115;-53
2022/12/27 08:11:08;;;;;;;13.98;9.27;;;13.30;99.90;;;;;;5114444;28;20055;-53
2022/12/27 08:13:34;;;;;;;12.93;10.10;;;13.30;99.90;;;;;;5113960;28;20391;-53
2022/12/27 08:16:01;;;;;;;13.98;11.25;;;13.30;99.90;;;;;;5113962;28;20027;-53
2022/12/27 08:18:27;;;;;;;17.33;14.75;;;13.30;99.90;;;;;;5114446;28;20062;-53
2022/12/27 08:20:53;;;;;;;18.00;15.27;;;13.30;99.90;;;;;;5114234;28;20610;-50
2022/12/27 08:23:19;;;;;;;17.17;14.23;;;13.30;99.90;;;;;;5113880;28;20368;-52
2022/12/27 08:25:45;;;;;;;23.83;17.08;;;13.30;99.90;;;;;;5094956;28;20043;-50
2022/12/27 08:28:13;;;;;;;20.13;14.85;;;13.40;99.90;;;;;;5114051;28;20523;-50
2022/12/27 08:30:41;;;;;;;15.65;10.30;;;13.40;99.90;;;;;;5114034;28;20031;-50
2022/12/27 08:33:08;;;;;;;16.40;10.68;;;13.40;99.90;;;;;;5113731;28;20181;-50
2022/12/27 08:35:40;;;;;;;14.93;9.77;;;13.40;99.90;;;;;;5113890;28;20134;-50
2022/12/27 08:38:07;;;;;;;14.85;10.75;;;13.40;99.90;;;;;;5113846;28;20111;-53
2022/12/27 08:40:33;;;;;;;13.77;9.40;;;13.40;99.90;;;;;;5094782;28;20040;-52
2022/12/27 08:42:59;;;;;;;20.02;15.45;;;13.40;99.90;;;;;;5114110;28;20133;-53
2022/12/27 08:45:25;;;;;;;22.40;18.30;;;13.40;99.90;;;;;;5113658;28;20057;-53
2022/12/27 08:47:51;;;;;;;26.88;23.52;;;13.40;99.90;;;;;;5113958;28;20051;-54
2022/12/27 08:50:16;;;;;;;20.48;17.00;;;13.40;99.90;;;;;;5117566;28;20488;-53
2022/12/27 08:52:42;;;;;;;28.98;22.95;;;13.40;99.90;;;;;;5117677;28;20038;-53
2022/12/27 08:55:08;;;;;;;32.70;24.70;;;13.50;99.90;;;;;;5117379;28;20027;-52
2022/12/27 08:57:34;;;;;;;15.02;10.55;;;13.40;99.90;;;;;;5117353;28;20102;-52
2022/12/27 09:00:00;;;;;;;14.63;10.82;;;13.40;99.90;;;;;;5117348;28;20034;-52
2022/12/27 09:02:25;;;;;;;18.85;15.68;;;13.40;99.90;;;;;;5117593;28;20024;-51
2022/12/27 09:04:51;;;;;;;17.42;13.85;;;13.40;99.90;;;;;;5098554;28;20035;-53
2022/12/27 09:07:17;;;;;;;17.70;13.60;;;13.40;99.90;;;;;;5117437;28;20047;-50
2022/12/27 09:09:43;;;;;;;17.55;13.55;;;13.40;99.90;;;;;;5116669;28;20023;-52
2022/12/27 09:12:08;;;;;;;16.27;11.93;;;13.40;99.90;;;;;;5117472;28;20587;-49
2022/12/27 09:14:34;;;;;;;13.63;11.65;;;13.40;99.90;;;;;;5116822;28;20136;-50
2022/12/27 09:17:00;;;;;;;15.75;12.15;;;13.40;99.90;;;;;;5114942;28;20084;-50
2022/12/27 09:19:26;;;;;;;18.58;14.50;;;13.30;99.90;;;;;;5060754;28;20077;-49
2022/12/27 09:21:51;;;;;;;20.48;15.82;;;13.30;99.90;;;;;;5058669;28;20086;-50
2022/12/27 09:24:17;;;;;;;18.77;14.10;;;13.30;99.90;;;;;;5093061;28;20045;-49
2022/12/27 09:26:43;;;;;;;23.83;14.13;;;13.40;99.90;;;;;;5116794;27;20064;-51
2022/12/27 09:29:09;;;;;;;9.73;5.93;;;13.30;99.90;;;;;;5116211;28;20042;-50
2022/12/27 09:31:35;;;;;;;9.18;6.40;;;13.40;99.90;;;;;;5116121;28;20023;-52
2022/12/27 09:34:00;;;;;;;35.53;19.92;;;13.30;99.90;;;;;;5116429;28;20027;-49
2022/12/27 09:36:28;;;;;;;28.67;14.70;;;13.30;99.90;;;;;;5114399;28;20122;-51
2022/12/27 09:38:55;;;;;;;24.80;13.40;;;13.20;99.90;;;;;;5095306;28;20075;-49
2022/12/27 09:41:46;;;;;;;13.68;8.25;;;13.20;99.90;;;;;;5115710;28;20111;-49
2022/12/27 09:44:15;;;;;;;10.85;6.72;;;13.20;99.90;;;;;;5096562;28;20047;-49
2022/12/27 09:46:50;;;;;;;16.23;10.60;;;13.20;99.90;;;;;;5115999;28;20057;-49
2022/12/27 09:49:25;;;;;;;12.70;9.00;;;13.10;99.90;;;;;;5115621;28;20051;-49
2022/12/27 09:51:59;;;;;;;15.45;11.10;;;12.90;99.90;;;;;;5108689;28;20034;-51
2022/12/27 09:54:47;;;;;;;15.90;11.45;;;13.00;99.90;;;;;;5113910;28;20410;-52
2022/12/27 09:57:38;;;;;;;8.20;5.18;;;13.00;99.90;;;;;;5031375;28;20096;-51
2022/12/27 10:00:19;;;;;;;8.60;6.30;;;13.10;99.90;;;;;;5012011;28;20386;-49
2022/12/27 10:02:47;;;;;;;18.50;9.93;;;13.10;99.90;;;;;;4997427;28;20038;-49
2022/12/27 10:05:26;;;;;;;19.48;13.77;;;13.20;99.90;;;;;;5012155;28;20064;-50
2022/12/27 10:08:12;;;;;;;21.92;15.38;;;13.30;99.90;;;;;;5012276;28;20042;-49
2022/12/27 10:10:41;;;;;;;24.67;19.13;;;13.30;99.90;;;;;;5012436;28;20022;-49
2022/12/27 10:13:24;;;;;;;24.10;17.05;;;13.20;99.90;;;;;;5012292;28;20049;-50
2022/12/27 10:16:13;;;;;;;16.67;11.98;;;13.10;99.90;;;;;;5019860;28;20517;-49
2022/12/27 10:19:12;;;;;;;14.63;10.55;;;13.10;99.90;;;;;;5031336;28;20079;-50
2022/12/27 10:21:59;;;;;;;11.57;8.45;;;13.10;99.90;;;;;;5030815;28;20350;-49
2022/12/27 10:24:44;;;;;;;15.25;10.70;;;13.10;99.90;;;;;;5031125;28;20025;-51
2022/12/27 10:27:19;;;;;;;11.73;7.80;;;13.20;99.90;;;;;;4972979;28;20126;-52
2022/12/27 10:29:45;;;;;;;12.23;8.40;;;13.20;99.90;;;;;;4972984;28;20034;-53
2022/12/27 10:32:13;;;;;;;12.13;8.02;;;13.20;99.90;;;;;;4972448;28;20043;-51
2022/12/27 10:34:39;;;;;;;28.45;12.27;;;13.20;99.90;;;;;;5009119;28;20033;-52
2022/12/27 10:37:04;;;;;;;21.85;12.50;;;13.30;99.90;;;;;;5054830;28;20518;-51
2022/12/27 10:39:34;;;;;;;25.58;14.23;;;13.20;99.90;;;;;;5071783;28;20519;-52
2022/12/27 10:42:24;;;;;;;22.58;13.00;;;13.00;99.90;;;;;;5071513;28;20135;-52
2022/12/27 10:44:50;;;;;;;18.08;10.85;;;12.90;99.90;;;;;;5067166;28;20021;-53
2022/12/27 10:47:16;;;;;;;19.15;11.38;;;13.00;99.90;;;;;;5066315;28;20500;-53
2022/12/27 10:49:59;;;;;;;16.40;10.73;;;13.20;99.90;;;;;;5068891;28;20032;-51
2022/12/27 10:52:30;;;;;;;13.95;8.68;;;13.20;99.90;;;;;;5069613;28;20089;-52
2022/12/27 10:54:56;;;;;;;12.55;8.93;;;13.20;99.90;;;;;;5022905;28;20462;-50
2022/12/27 10:57:29;;;;;;;13.48;8.70;;;13.20;99.90;;;;;;5080537;28;20398;-50
2022/12/27 11:00:15;;;;;;;11.88;9.43;;;13.30;99.90;;;;;;5114306;28;20023;-50
2022/12/27 11:03:01;;;;;;;12.40;8.55;;;13.30;99.90;;;;;;5114579;27;20364;-50
2022/12/27 11:05:29;;;;;;;18.85;13.25;;;13.30;99.90;;;;;;5111622;28;20035;-51
2022/12/27 11:07:56;;;;;;;15.40;11.27;;;13.40;99.90;;;;;;5094131;28;20031;-50
2022/12/27 11:10:25;;;;;;;15.88;10.45;;;13.50;99.90;;;;;;5111771;28;20035;-50
2022/12/27 11:13:17;;;;;;;21.67;14.25;;;13.50;99.90;;;;;;5070579;28;20046;-49
2022/12/27 11:15:56;;;;;;;56.80;34.53;;;13.50;99.90;;;;;;5106779;28;20043;-50
2022/12/27 11:18:22;;;;;;;28.17;20.20;;;13.40;99.90;;;;;;5097344;28;20048;-49
2022/12/27 11:20:53;;;;;;;20.00;15.38;;;13.30;99.90;;;;;;5093304;28;20069;-49
2022/12/27 11:23:22;;;;;;;145.77;102.50;;;13.20;99.90;;;;;;5093219;28;20052;-50
2022/12/27 11:25:51;;;;;;;225.10;147.40;;;13.10;99.90;;;;;;5040515;28;20114;-51
2022/12/27 11:28:39;;;;;;;96.10;83.50;;;13.10;99.90;;;;;;5093275;28;20085;-51
2022/12/27 11:31:17;;;;;;;59.28;48.60;;;13.30;99.90;;;;;;5093053;28;20032;-52
2022/12/27 11:33:51;;;;;;;41.92;28.13;;;13.30;99.90;;;;;;5093074;28;20056;-48
2022/12/27 11:36:39;;;;;;;38.47;18.30;;;13.40;99.90;;;;;;5093005;28;20027;-51
2022/12/27 11:39:06;;;;;;;16.80;8.45;;;13.40;99.90;;;;;;5092728;28;20036;-52
2022/12/27 11:55:00;;;;;;;9.57;6.57;;;13.50;99.90;;;;;;5151350;27;20117;-51
2022/12/27 11:58:01;;;;;;;4.30;3.17;;;13.10;99.90;;;;;;5130353;28;20034;-50
2022/12/27 12:00:40;;;;;;;5.82;3.33;;;12.50;99.90;;;;;;5130345;28;20031;-52
2022/12/27 12:03:34;;;;;;;14.20;8.80;;;12.40;99.90;;;;;;5130120;28;20110;-54
2022/12/27 12:05:59;;;;;;;11.32;7.45;;;12.50;99.90;;;;;;5130106;28;20382;-52
2022/12/27 12:09:04;;;;;;;14.38;8.15;;;12.70;99.90;;;;;;5130350;28;20023;-55
2022/12/27 12:11:45;;;;;;;8.55;5.38;;;13.00;99.90;;;;;;5131208;28;20023;-54
2022/12/27 12:14:29;;;;;;;23.65;13.32;;;13.10;99.90;;;;;;5130799;28;20084;-52
2022/12/27 12:17:16;;;;;;;45.83;24.80;;;13.20;99.90;;;;;;5131136;28;20020;-51
2022/12/27 12:20:18;;;;;;;10.73;6.15;;;13.10;99.90;;;;;;5131087;28;20023;-51
2022/12/27 12:22:53;;;;;;;12.90;7.90;;;13.00;99.90;;;;;;5112730;28;20040;-53
2022/12/27 12:25:57;;;;;;;11.27;8.48;;;13.00;99.90;;;;;;5130706;28;20034;-56
2022/12/27 12:28:53;;;;;;;14.65;10.18;;;13.00;99.90;;;;;;5131231;28;20049;-52
2022/12/27 12:31:33;;;;;;;20.30;15.23;;;12.90;99.90;;;;;;5130611;28;20031;-54
2022/12/27 12:34:43;;;;;;;21.38;16.15;;;12.90;99.90;;;;;;5130423;28;20054;-50
2022/12/27 12:37:15;;;;;;;22.55;18.60;;;12.90;99.90;;;;;;5111590;28;20104;-54
2022/12/27 12:40:18;;;;;;;29.17;22.27;;;12.90;99.90;;;;;;5130899;28;20110;-53
2022/12/27 12:43:04;;;;;;;31.98;26.30;;;12.80;99.90;;;;;;5027270;28;20042;-55
2022/12/27 12:45:54;;;;;;;45.28;33.38;;;12.80;99.90;;;;;;5027408;28;20092;-54
2022/12/27 12:48:41;;;;;;;30.40;21.55;;;12.70;99.90;;;;;;5027346;28;20069;-56
2022/12/27 12:51:27;;;;;;;25.23;16.92;;;;;;;;;;5026959;28;20107;-52
2022/12/27 12:54:39;;;;;;;39.28;29.63;;;12.40;99.90;;;;;;4988470;28;20050;-52
2022/12/27 12:57:32;;;;;;;25.48;19.90;;;12.40;99.90;;;;;;4974894;28;20049;-57
2022/12/27 13:00:26;;;;;;;19.52;14.48;;;12.30;99.90;;;;;;4974907;28;20078;-50
2022/12/27 13:03:23;;;;;;;30.80;20.30;;;12.20;99.90;;;;;;4963906;28;20086;-60
2022/12/27 13:06:11;;;;;;;42.47;25.02;;;12.20;99.90;;;;;;4965468;28;20054;-60
2022/12/27 13:08:51;;;;;;;32.97;25.42;;;12.20;99.90;;;;;;4965138;28;20035;-57
2022/12/27 13:11:37;;;;;;;29.23;22.60;;;12.20;99.90;;;;;;4961800;28;20039;-52
2022/12/27 13:14:15;;;;;;;38.35;21.98;;;12.20;99.90;;;;;;4957794;28;20123;-60
2022/12/27 13:16:54;;;;;;;19.10;13.43;;;12.30;99.90;;;;;;4992934;28;20072;-51
2022/12/27 13:19:43;;;;;;;22.38;15.32;;;12.30;99.90;;;;;;5013560;28;20033;-56
2022/12/27 13:22:36;;;;;;;28.50;21.15;;;12.30;99.90;;;;;;4980631;28;20038;-60
2022/12/27 13:25:17;;;;;;;25.52;16.38;;;12.30;99.90;;;;;;4997057;28;20513;-52
2022/12/27 13:28:07;;;;;;;20.75;14.20;;;12.30;99.90;;;;;;5005478;28;20181;-61
2022/12/27 13:30:50;;;;;;;24.02;16.23;;;12.20;99.90;;;;;;5018587;28;20029;-59
2022/12/27 13:33:19;;;;;;;26.10;18.85;;;12.20;99.90;;;;;;5095395;28;20111;-57
2022/12/27 13:36:05;;;;;;;22.23;15.75;;;12.10;99.90;;;;;;5095196;28;20089;-57
2022/12/27 13:38:46;;;;;;;25.83;17.05;;;12.10;99.90;;;;;;5062900;28;20047;-53
2022/12/27 13:41:38;;;;;;;33.47;22.38;;;12.10;99.90;;;;;;5060050;28;20100;-54
2022/12/27 13:44:16;;;;;;;25.98;17.58;;;12.00;99.90;;;;;;5110265;28;20071;-56
2022/12/27 13:46:47;;;;;;;26.27;17.98;;;12.00;99.90;;;;;;5112395;28;20058;-62
2022/12/27 13:49:59;;;;;;;24.02;16.92;;;11.80;99.90;;;;;;5114478;28;20853;-59
2022/12/27 13:52:25;;;;;;;29.40;18.77;;;11.90;99.90;;;;;;5108443;28;20019;-58
2022/12/27 13:55:29;;;;;;;24.90;16.60;;;11.80;99.90;;;;;;5113758;28;20028;-56
2022/12/27 13:58:18;;;;;;;23.50;17.98;;;11.80;99.90;;;;;;5114103;28;20027;-53
2022/12/27 14:01:03;;;;;;;24.45;16.48;;;11.80;99.90;;;;;;5112848;28;20020;-62
2022/12/27 14:03:44;;;;;;;33.20;22.52;;;11.90;99.90;;;;;;5114891;28;20028;-55
2022/12/27 14:06:51;;;;;;;27.63;20.85;;;11.90;99.90;;;;;;5114526;28;20038;-59
2022/12/27 14:09:38;;;;;;;25.13;17.20;;;11.70;99.90;;;;;;5114459;28;20024;-59
2022/12/27 14:12:24;;;;;;;26.63;19.25;;;11.70;99.90;;;;;;5114966;28;20054;-55
2022/12/27 14:14:52;;;;;;;34.22;25.10;;;11.90;99.90;;;;;;5114872;28;20024;-53
2022/12/27 14:17:55;;;;;;;29.33;21.50;;;12.00;99.90;;;;;;5115242;28;20059;-58
2022/12/27 14:20:33;;;;;;;27.83;18.60;;;12.30;99.90;;;;;;5070517;28;20584;-53
2022/12/27 14:23:10;;;;;;;30.67;22.63;;;12.20;99.90;;;;;;5114741;28;20034;-60
2022/12/27 14:26:04;;;;;;;31.10;23.77;;;12.20;99.90;;;;;;5114911;28;20031;-62
2022/12/27 14:29:35;;;;;;;32.42;24.85;;;12.30;99.90;;;;;;5114931;28;20103;-55
2022/12/27 14:32:21;;;;;;;31.10;23.45;;;12.30;99.90;;;;;;5005909;28;20042;-49
2022/12/27 14:35:23;;;;;;;32.50;22.83;;;12.40;99.90;;;;;;5012441;28;20026;-64
2022/12/27 14:38:04;;;;;;;;;;;12.50;99.90;;;;;;5012727;28;20038;-60
2022/12/27 14:40:54;;;;;;;27.73;21.50;;;12.50;99.90;;;;;;5012150;28;19905;-52
2022/12/27 14:43:20;;;;;;;30.52;23.30;;;12.60;99.90;;;;;;4979190;28;20537;-53
2022/12/27 14:46:09;;;;;;;29.67;23.15;;;12.60;99.90;;;;;;5012118;28;20160;-53
2022/12/27 14:48:59;;;;;;;51.75;39.63;;;12.60;99.90;;;;;;5011874;28;20130;-55
2022/12/27 14:52:22;;;;;;;45.28;33.30;;;12.60;99.90;;;;;;5011982;28;20030;-55
2022/12/27 14:55:08;;;;;;;46.40;34.13;;;12.60;99.90;;;;;;4953405;29;20044;-53
2022/12/27 14:57:36;;;;;;;48.03;35.13;;;12.50;99.90;;;;;;4953401;29;20074;-56
2022/12/27 15:00:16;;;;;;;49.13;34.53;;;12.60;99.90;;;;;;4921384;29;20646;-53
2022/12/27 15:03:15;;;;;;;48.00;37.20;;;12.60;99.90;;;;;;4964419;28;20041;-55